Time;durP1;ratioP1;P1;durP2;ratioP2;P2;SDS_P1;SDS_P2;PMS_P1;PMS_P2;Temp;Humidity;BMP_temperature;BMP_pressure;BME280_temperature;BME280_humidity;BME280_pressure;Samples;Min_cycle;Max_cycle;Signal;HPM_P1;HPM_P2
2022/07/13 00:01:00;;;;;;;19.02;15.70;;;20.30;99.90;;;;;;5023057;28;20060;-76
2022/07/13 00:03:26;;;;;;;18.25;15.45;;;20.20;99.90;;;;;;5023960;28;20112;-75
2022/07/13 00:05:51;;;;;;;21.45;16.20;;;20.20;99.90;;;;;;5026049;28;20402;-76
2022/07/13 00:08:17;;;;;;;17.63;14.90;;;20.20;99.90;;;;;;5022494;28;20112;-76
2022/07/13 00:10:42;;;;;;;18.95;15.43;;;20.20;99.90;;;;;;5025008;28;20080;-76
2022/07/13 00:13:08;;;;;;;18.77;15.50;;;20.20;99.90;;;;;;5024171;28;20136;-75
2022/07/13 00:15:33;;;;;;;22.58;17.13;;;20.10;99.90;;;;;;5025721;28;22990;-75
2022/07/13 00:17:59;;;;;;;19.20;16.25;;;20.10;99.90;;;;;;5026058;28;20469;-76
2022/07/13 00:20:27;;;;;;;18.23;16.17;;;20.10;99.90;;;;;;5021671;28;20104;-75
2022/07/13 00:22:53;;;;;;;21.80;17.33;;;20.00;99.90;;;;;;5023306;28;20029;-76
2022/07/13 00:25:19;;;;;;;20.92;16.30;;;20.00;99.90;;;;;;5021780;28;20043;-76
2022/07/13 00:27:45;;;;;;;20.08;16.23;;;20.00;99.90;;;;;;5023812;28;20501;-75
2022/07/13 00:30:10;;;;;;;18.98;15.52;;;20.00;99.90;;;;;;5024128;28;20537;-75
2022/07/13 00:32:36;;;;;;;19.98;16.45;;;20.00;99.90;;;;;;5021725;28;20118;-76
2022/07/13 00:35:02;;;;;;;18.25;15.73;;;20.00;99.90;;;;;;5027156;28;20021;-75
2022/07/13 00:37:27;;;;;;;19.67;16.27;;;19.90;99.90;;;;;;5024737;28;20409;-76
2022/07/13 00:39:53;;;;;;;17.73;15.85;;;19.90;99.90;;;;;;5020186;28;20037;-75
2022/07/13 00:42:18;;;;;;;20.45;16.67;;;19.80;99.90;;;;;;5025061;28;20052;-75
2022/07/13 00:44:44;;;;;;;19.70;16.52;;;19.80;99.90;;;;;;5022638;28;20033;-75
2022/07/13 00:47:10;;;;;;;19.13;16.83;;;19.80;99.90;;;;;;5023332;28;20437;-75
2022/07/13 00:49:36;;;;;;;19.85;16.27;;;19.80;99.90;;;;;;5026088;28;20060;-75
2022/07/13 00:52:02;;;;;;;17.58;15.13;;;19.80;99.90;;;;;;5025701;28;20057;-75
2022/07/13 00:54:29;;;;;;;17.55;15.40;;;19.80;99.90;;;;;;5023776;28;20171;-76
2022/07/13 00:56:56;;;;;;;17.90;15.02;;;19.80;99.90;;;;;;5026123;28;20036;-75
2022/07/13 00:59:24;;;;;;;19.33;16.35;;;19.70;99.90;;;;;;5020678;28;20084;-75
2022/07/13 01:01:49;;;;;;;18.30;15.48;;;19.80;99.90;;;;;;5023658;28;20440;-76
2022/07/13 01:04:15;;;;;;;17.38;14.77;;;19.80;99.90;;;;;;5024214;28;20040;-76
2022/07/13 01:06:41;;;;;;;15.60;11.65;;;19.80;99.90;;;;;;5024942;28;20033;-76
2022/07/13 01:09:06;;;;;;;13.85;12.30;;;19.80;99.90;;;;;;5025856;28;20025;-76
2022/07/13 01:11:33;;;;;;;18.10;13.98;;;19.80;99.90;;;;;;5027725;28;20072;-76
2022/07/13 01:14:00;;;;;;;15.38;13.05;;;19.90;99.90;;;;;;5026419;28;20022;-75
2022/07/13 01:16:26;;;;;;;13.60;11.18;;;20.00;99.90;;;;;;5027996;28;20103;-75
2022/07/13 01:18:51;;;;;;;13.40;10.88;;;20.00;99.90;;;;;;5027088;28;20053;-76
2022/07/13 01:21:18;;;;;;;12.27;9.70;;;20.00;99.90;;;;;;5026512;28;20477;-76
2022/07/13 01:23:44;;;;;;;12.70;9.38;;;20.00;99.90;;;;;;5025225;28;20037;-75
2022/07/13 01:26:11;;;;;;;11.80;9.95;;;20.10;99.90;;;;;;5038074;28;20022;-76
2022/07/13 01:28:37;;;;;;;9.88;8.05;;;20.10;99.90;;;;;;5027040;28;20048;-75
2022/07/13 01:31:03;;;;;;;11.15;8.90;;;20.10;99.90;;;;;;5025834;28;20390;-76
2022/07/13 01:33:28;;;;;;;10.88;8.65;;;20.10;99.90;;;;;;5026675;28;20042;-75
2022/07/13 01:35:55;;;;;;;11.13;8.63;;;20.10;99.90;;;;;;5028312;28;20032;-76
2022/07/13 01:38:21;;;;;;;11.65;8.07;;;20.10;99.90;;;;;;5027913;28;20042;-75
2022/07/13 01:40:47;;;;;;;8.52;7.68;;;20.10;99.90;;;;;;5024713;28;20033;-75
2022/07/13 01:43:12;;;;;;;9.85;8.13;;;20.10;99.90;;;;;;5027480;28;20030;-77
2022/07/13 01:45:38;;;;;;;9.05;7.82;;;20.10;99.90;;;;;;5028541;28;20079;-75
2022/07/13 01:48:04;;;;;;;10.32;7.90;;;20.10;99.90;;;;;;5026486;28;20057;-75
2022/07/13 01:50:30;;;;;;;10.43;7.55;;;20.10;99.90;;;;;;5027874;28;20022;-75
2022/07/13 01:52:56;;;;;;;9.85;7.28;;;20.10;99.90;;;;;;5030292;28;20370;-75
2022/07/13 01:55:21;;;;;;;7.68;6.88;;;20.10;99.90;;;;;;5022952;28;20048;-76
2022/07/13 01:57:47;;;;;;;8.90;6.90;;;20.10;99.90;;;;;;5026756;28;20041;-75
2022/07/13 02:00:14;;;;;;;8.10;6.95;;;20.10;99.90;;;;;;5023409;28;20026;-75
2022/07/13 02:02:41;;;;;;;10.93;7.03;;;20.10;99.90;;;;;;5028183;28;20120;-75
2022/07/13 02:05:07;;;;;;;8.50;7.05;;;20.10;99.90;;;;;;5026815;28;20139;-75
2022/07/13 02:07:32;;;;;;;8.20;6.80;;;20.10;99.90;;;;;;5024723;28;20030;-75
2022/07/13 02:09:58;;;;;;;9.95;6.75;;;20.10;99.90;;;;;;5025222;28;20402;-75
2022/07/13 02:12:23;;;;;;;9.20;7.57;;;20.20;99.90;;;;;;5027377;28;20101;-74
2022/07/13 02:14:49;;;;;;;10.00;7.38;;;20.20;99.90;;;;;;5026230;28;20043;-75
2022/07/13 02:17:15;;;;;;;8.55;6.50;;;20.20;99.90;;;;;;5026522;28;20033;-75
2022/07/13 02:19:40;;;;;;;11.85;6.07;;;20.30;99.90;;;;;;5026717;28;20430;-75
2022/07/13 02:22:09;;;;;;;8.32;6.97;;;20.30;99.90;;;;;;5027521;28;20025;-74
2022/07/13 02:24:35;;;;;;;8.15;6.63;;;20.30;99.90;;;;;;5027737;28;20075;-75
2022/07/13 02:27:00;;;;;;;13.95;7.53;;;20.40;99.90;;;;;;5024915;28;20507;-74
2022/07/13 02:29:26;;;;;;;8.18;6.65;;;20.40;99.90;;;;;;5025320;28;20131;-75
2022/07/13 02:31:52;;;;;;;9.10;6.97;;;20.40;99.90;;;;;;5024564;28;20498;-74
2022/07/13 02:34:17;;;;;;;7.05;6.07;;;20.50;99.90;;;;;;5026413;28;20025;-75
2022/07/13 02:36:43;;;;;;;8.85;6.18;;;20.50;99.90;;;;;;5028023;28;20029;-75
2022/07/13 02:39:09;;;;;;;7.55;5.72;;;20.50;99.90;;;;;;5024703;28;20488;-74
2022/07/13 02:41:34;;;;;;;6.47;5.75;;;20.50;99.90;;;;;;5027449;28;20033;-74
2022/07/13 02:44:00;;;;;;;6.20;5.00;;;20.50;99.90;;;;;;5026157;28;20030;-74
2022/07/13 02:46:25;;;;;;;7.90;5.82;;;20.60;99.90;;;;;;5024457;28;20397;-74
2022/07/13 02:48:51;;;;;;;8.20;5.68;;;20.60;99.90;;;;;;5027723;28;20029;-74
2022/07/13 02:51:16;;;;;;;10.85;5.38;;;20.60;99.90;;;;;;5026879;28;20030;-74
2022/07/13 02:53:42;;;;;;;7.60;6.05;;;20.60;99.90;;;;;;5025112;28;20026;-74
2022/07/13 02:56:07;;;;;;;8.75;5.45;;;20.60;99.90;;;;;;5021152;28;20045;-74
2022/07/13 02:58:33;;;;;;;7.43;6.20;;;20.60;99.90;;;;;;5024930;28;20029;-74
2022/07/13 03:00:59;;;;;;;8.20;5.50;;;20.60;99.90;;;;;;5025375;28;20525;-74
2022/07/13 03:03:24;;;;;;;8.93;6.30;;;20.60;99.90;;;;;;5026212;28;20041;-74
2022/07/13 03:05:50;;;;;;;10.35;5.53;;;20.60;99.90;;;;;;5027005;28;20116;-74
2022/07/13 03:08:16;;;;;;;8.38;6.25;;;20.60;99.90;;;;;;5026325;28;20037;-74
2022/07/13 03:10:41;;;;;;;6.93;6.18;;;20.70;99.90;;;;;;5024625;28;20029;-74
2022/07/13 03:13:07;;;;;;;6.25;5.35;;;20.60;99.90;;;;;;5024818;28;20060;-74
2022/07/13 03:15:32;;;;;;;6.95;5.25;;;20.60;99.90;;;;;;5022420;28;20064;-74
2022/07/13 03:17:58;;;;;;;9.65;6.13;;;20.60;99.90;;;;;;5024401;28;20492;-74
2022/07/13 03:20:23;;;;;;;8.23;5.63;;;20.60;99.90;;;;;;5023635;28;20521;-74
2022/07/13 03:22:49;;;;;;;7.75;5.45;;;20.60;99.90;;;;;;5026726;28;20030;-74
2022/07/13 03:25:15;;;;;;;9.25;6.22;;;20.60;99.90;;;;;;5026726;28;20409;-74
2022/07/13 03:27:40;;;;;;;9.07;5.65;;;20.60;99.90;;;;;;5025273;28;20440;-74
2022/07/13 03:30:07;;;;;;;7.15;6.10;;;20.60;99.90;;;;;;5024457;28;20029;-74
2022/07/13 03:32:32;;;;;;;7.03;5.93;;;20.60;99.90;;;;;;5024787;28;20029;-74
2022/07/13 03:34:58;;;;;;;8.70;5.75;;;20.60;99.90;;;;;;5024120;28;20363;-74
2022/07/13 03:37:23;;;;;;;9.77;7.40;;;20.60;99.90;;;;;;5025077;28;20041;-74
2022/07/13 03:39:49;;;;;;;10.90;6.60;;;20.60;99.90;;;;;;5024983;28;20021;-74
2022/07/13 03:42:15;;;;;;;7.82;5.88;;;20.60;99.90;;;;;;5025658;28;20033;-74
2022/07/13 03:44:40;;;;;;;10.23;6.13;;;20.60;99.90;;;;;;5025951;28;20084;-73
2022/07/13 03:47:06;;;;;;;9.55;6.63;;;20.60;99.90;;;;;;5020048;28;20577;-74
2022/07/13 03:49:31;;;;;;;10.27;6.25;;;20.60;99.90;;;;;;5027176;28;20029;-74
2022/07/13 03:51:57;;;;;;;8.65;6.85;;;20.60;99.90;;;;;;5026389;28;20033;-74
2022/07/13 03:54:22;;;;;;;7.30;5.97;;;20.60;99.90;;;;;;5023900;28;20452;-73
2022/07/13 03:56:48;;;;;;;8.35;6.47;;;20.60;99.90;;;;;;5024164;28;20037;-74
2022/07/13 03:59:14;;;;;;;7.78;6.55;;;20.60;99.90;;;;;;5024731;28;20029;-74
2022/07/13 04:01:40;;;;;;;8.68;7.07;;;20.60;99.90;;;;;;5023145;28;20071;-74
2022/07/13 04:04:06;;;;;;;11.65;7.47;;;20.60;99.90;;;;;;5023037;28;20054;-74
2022/07/13 04:06:32;;;;;;;12.02;7.72;;;20.60;99.90;;;;;;5024356;28;20049;-74
2022/07/13 04:08:58;;;;;;;14.30;7.88;;;20.60;99.90;;;;;;5021753;28;20022;-74
2022/07/13 04:11:25;;;;;;;13.85;7.57;;;20.60;99.90;;;;;;5023395;28;20033;-74
2022/07/13 04:13:51;;;;;;;10.25;6.93;;;20.60;99.90;;;;;;5023697;28;20030;-74
2022/07/13 04:16:17;;;;;;;9.82;7.60;;;20.60;99.90;;;;;;5024521;28;20038;-74
2022/07/13 04:18:42;;;;;;;12.68;7.57;;;20.60;99.90;;;;;;5024073;28;20367;-73
2022/07/13 04:21:08;;;;;;;9.68;7.93;;;20.60;99.90;;;;;;5024171;28;20084;-75
2022/07/13 04:23:33;;;;;;;8.73;5.43;;;20.60;99.90;;;;;;5022209;28;20401;-75
2022/07/13 04:25:59;;;;;;;9.18;7.35;;;20.60;99.90;;;;;;5020927;28;20033;-74
2022/07/13 04:28:25;;;;;;;8.95;6.90;;;20.60;99.90;;;;;;5023498;28;20018;-74
2022/07/13 04:30:51;;;;;;;12.18;7.78;;;20.60;99.90;;;;;;5019882;28;20079;-75
2022/07/13 04:33:16;;;;;;;13.55;7.65;;;20.70;99.90;;;;;;5016987;28;20021;-74
2022/07/13 04:35:42;;;;;;;9.95;7.57;;;20.70;99.90;;;;;;5022494;28;20029;-75
2022/07/13 04:38:07;;;;;;;10.52;7.25;;;20.70;99.90;;;;;;5020796;28;20120;-75
2022/07/13 04:40:33;;;;;;;10.20;7.07;;;20.70;99.90;;;;;;5024254;28;20018;-75
2022/07/13 04:42:58;;;;;;;10.70;7.50;;;20.80;99.90;;;;;;5021069;28;20071;-74
2022/07/13 04:45:24;;;;;;;10.75;7.93;;;20.90;99.90;;;;;;5021808;28;20452;-74
2022/07/13 04:47:50;;;;;;;11.63;8.25;;;20.90;99.90;;;;;;5026753;28;20034;-74
2022/07/13 04:50:16;;;;;;;11.02;7.97;;;21.00;99.90;;;;;;5024944;28;20067;-74
2022/07/13 04:52:42;;;;;;;13.40;8.30;;;21.10;99.90;;;;;;5025380;28;20026;-74
2022/07/13 04:55:09;;;;;;;9.48;7.32;;;21.10;99.90;;;;;;5018223;28;20048;-74
2022/07/13 04:57:35;;;;;;;10.00;7.47;;;21.20;99.90;;;;;;5015711;28;20041;-75
2022/07/13 05:00:00;;;;;;;8.35;7.28;;;21.20;99.90;;;;;;5023641;28;20025;-75
2022/07/13 05:02:26;;;;;;;13.57;8.02;;;21.20;99.90;;;;;;5026168;28;20037;-76
2022/07/13 05:04:52;;;;;;;10.57;7.43;;;21.20;99.90;;;;;;4989309;28;1045798;-75
2022/07/13 05:07:17;;;;;;;9.80;7.57;;;21.20;99.90;;;;;;5022248;28;20032;-77
2022/07/13 05:09:43;;;;;;;8.55;7.65;;;21.30;99.90;;;;;;5027291;28;20441;-76
2022/07/13 05:12:08;;;;;;;9.82;7.32;;;21.20;99.90;;;;;;5029865;28;20048;-76
2022/07/13 05:14:35;;;;;;;9.38;7.10;;;21.30;99.90;;;;;;5023231;28;20036;-76
2022/07/13 05:17:01;;;;;;;8.45;6.45;;;21.40;99.90;;;;;;5025680;28;20037;-76
2022/07/13 05:19:26;;;;;;;10.68;6.85;;;21.40;99.90;;;;;;5024978;28;20017;-76
2022/07/13 05:21:52;;;;;;;8.98;6.20;;;21.50;99.90;;;;;;5023097;28;20561;-76
2022/07/13 05:24:18;;;;;;;7.55;4.93;;;21.60;99.90;;;;;;5027470;28;20052;-76
2022/07/13 05:26:43;;;;;;;9.20;5.10;;;21.70;99.90;;;;;;5019313;28;20513;-76
2022/07/13 05:29:09;;;;;;;8.95;5.13;;;21.80;99.90;;;;;;5026033;28;20102;-76
2022/07/13 05:31:35;;;;;;;6.55;3.80;;;21.90;99.90;;;;;;5028264;28;20128;-75
2022/07/13 05:34:03;;;;;;;8.02;4.47;;;22.10;99.90;;;;;;5026022;28;20474;-75
2022/07/13 05:36:29;;;;;;;5.80;4.03;;;22.20;99.90;;;;;;5021112;28;20098;-76
2022/07/13 05:38:55;;;;;;;5.80;4.32;;;22.30;99.90;;;;;;5026135;28;20083;-78
2022/07/13 05:41:20;;;;;;;5.57;3.80;;;22.40;99.90;;;;;;5024509;28;20120;-76
2022/07/13 05:43:47;;;;;;;8.00;4.00;;;22.50;99.90;;;;;;5022800;28;20120;-76
2022/07/13 05:46:12;;;;;;;8.48;3.72;;;22.50;99.90;;;;;;5018330;28;20029;-77
2022/07/13 05:48:38;;;;;;;6.75;4.10;;;22.60;99.90;;;;;;5034021;28;20029;-76
2022/07/13 05:51:04;;;;;;;5.53;4.10;;;22.60;99.90;;;;;;5032780;28;20117;-75
2022/07/13 05:53:30;;;;;;;8.45;4.05;;;22.60;99.90;;;;;;5033393;28;20037;-75
2022/07/13 05:55:55;;;;;;;5.63;3.67;;;22.70;99.90;;;;;;5021869;28;20032;-75
2022/07/13 05:58:21;;;;;;;7.90;3.83;;;22.70;99.90;;;;;;5033509;28;20499;-75
2022/07/13 06:00:47;;;;;;;8.45;4.57;;;22.60;99.90;;;;;;5021612;28;20049;-75
2022/07/13 06:03:12;;;;;;;6.07;3.70;;;22.70;99.90;;;;;;5025473;28;20072;-74
2022/07/13 06:05:38;;;;;;;11.18;5.30;;;22.70;99.90;;;;;;5029724;28;20095;-75
2022/07/13 06:08:04;;;;;;;5.90;4.82;;;22.80;99.90;;;;;;5033086;28;20033;-75
2022/07/13 06:10:30;;;;;;;5.30;3.80;;;22.90;99.90;;;;;;5034050;28;20021;-75
2022/07/13 06:12:55;;;;;;;7.72;4.05;;;23.00;99.90;;;;;;5029247;28;20056;-76
2022/07/13 06:15:21;;;;;;;6.43;3.92;;;23.20;99.90;;;;;;5033045;28;20026;-74
2022/07/13 06:17:46;;;;;;;5.95;3.45;;;23.40;99.90;;;;;;5032160;28;20059;-74
2022/07/13 06:20:12;;;;;;;5.63;3.20;;;23.60;99.90;;;;;;5032905;28;20076;-74
2022/07/13 06:22:37;;;;;;;5.95;2.90;;;23.70;99.90;;;;;;5028003;28;20018;-74
2022/07/13 06:25:03;;;;;;;6.43;2.85;;;23.80;99.90;;;;;;5037802;28;20017;-75
2022/07/13 06:27:29;;;;;;;4.30;3.17;;;23.80;99.90;;;;;;5029990;28;20575;-74
2022/07/13 06:29:55;;;;;;;7.47;3.28;;;23.90;99.90;;;;;;5020398;28;20068;-74
2022/07/13 06:32:20;;;;;;;4.88;2.97;;;23.90;99.90;;;;;;5028645;28;20061;-74
2022/07/13 06:34:46;;;;;;;6.13;3.08;;;24.00;99.90;;;;;;5022108;28;20026;-74
2022/07/13 06:37:11;;;;;;;5.47;3.22;;;24.00;99.90;;;;;;5023602;28;20048;-74
2022/07/13 06:39:37;;;;;;;6.10;3.10;;;24.10;99.90;;;;;;5025137;28;20037;-72
2022/07/13 06:42:03;;;;;;;5.15;2.97;;;24.30;99.90;;;;;;5026767;28;20022;-72
2022/07/13 06:44:29;;;;;;;5.45;3.00;;;24.40;99.90;;;;;;5040138;28;20018;-73
2022/07/13 06:46:54;;;;;;;5.40;2.60;;;24.50;99.90;;;;;;5035570;28;20021;-73
2022/07/13 06:49:20;;;;;;;5.13;2.83;;;24.60;99.60;;;;;;5024902;28;20029;-72
2022/07/13 06:51:45;;;;;;;5.63;3.42;;;24.70;99.40;;;;;;5024765;28;20030;-74
2022/07/13 06:54:11;;;;;;;3.60;2.60;;;24.90;99.10;;;;;;5032829;28;20120;-73
2022/07/13 06:56:36;;;;;;;4.28;2.70;;;24.90;98.90;;;;;;5034093;28;20125;-73
2022/07/13 06:59:02;;;;;;;4.40;2.35;;;25.10;98.50;;;;;;5034178;28;20120;-74
2022/07/13 07:01:28;;;;;;;7.65;2.95;;;25.20;98.00;;;;;;5026796;28;20376;-73
2022/07/13 07:03:54;;;;;;;6.63;2.47;;;25.20;97.60;;;;;;5034094;28;20041;-72
2022/07/13 07:06:19;;;;;;;6.47;3.30;;;25.20;97.50;;;;;;5024774;28;20040;-73
2022/07/13 07:08:45;;;;;;;7.15;3.15;;;25.30;97.10;;;;;;5030314;28;20025;-74
2022/07/13 07:11:11;;;;;;;5.75;3.05;;;25.30;97.00;;;;;;5026044;28;20041;-74
2022/07/13 07:13:37;;;;;;;4.55;3.28;;;25.40;97.00;;;;;;5022170;28;20475;-73
2022/07/13 07:16:02;;;;;;;3.72;3.13;;;25.50;97.10;;;;;;5030517;28;20022;-74
2022/07/13 07:18:28;;;;;;;5.47;2.92;;;25.50;96.80;;;;;;5026065;28;20091;-73
2022/07/13 07:20:53;;;;;;;5.47;3.20;;;25.50;96.70;;;;;;5027485;28;20022;-73
2022/07/13 07:23:19;;;;;;;5.70;3.08;;;25.50;96.50;;;;;;5023756;28;20052;-74
2022/07/13 07:25:44;;;;;;;5.82;3.00;;;25.50;96.40;;;;;;5041756;28;20029;-73
2022/07/13 07:28:10;;;;;;;4.20;2.97;;;25.50;96.40;;;;;;5026826;28;20029;-74
2022/07/13 07:30:36;;;;;;;6.85;2.80;;;25.60;96.40;;;;;;5028649;28;20026;-74
2022/07/13 07:33:02;;;;;;;3.70;2.95;;;25.60;96.50;;;;;;5030088;28;20523;-76
2022/07/13 07:35:28;;;;;;;5.18;3.13;;;25.60;96.30;;;;;;5032298;28;20100;-74
2022/07/13 07:37:54;;;;;;;4.22;2.38;;;25.60;96.40;;;;;;5024017;28;20030;-75
2022/07/13 07:40:19;;;;;;;8.88;3.08;;;25.80;96.40;;;;;;5019780;28;20025;-75
2022/07/13 07:42:45;;;;;;;3.50;2.45;;;25.90;96.10;;;;;;5027138;28;20026;-74
2022/07/13 07:45:10;;;;;;;4.57;3.30;;;26.00;96.00;;;;;;5029410;28;20803;-75
2022/07/13 07:47:37;;;;;;;4.25;2.20;;;26.10;95.70;;;;;;5021988;28;20025;-74
2022/07/13 07:50:04;;;;;;;5.28;2.00;;;26.20;95.60;;;;;;5030327;28;20025;-74
2022/07/13 07:52:30;;;;;;;5.80;2.58;;;26.20;95.50;;;;;;5017487;28;20026;-75
2022/07/13 07:54:55;;;;;;;3.35;2.00;;;26.20;95.40;;;;;;5031511;28;20087;-74
2022/07/13 07:57:21;;;;;;;5.43;1.90;;;26.30;95.40;;;;;;5026157;28;20041;-75
2022/07/13 07:59:47;;;;;;;4.70;1.92;;;26.30;95.20;;;;;;5026731;28;20032;-74
2022/07/13 08:02:12;;;;;;;3.60;2.15;;;26.30;95.40;;;;;;5026026;28;20375;-74
2022/07/13 08:04:38;;;;;;;4.38;2.42;;;26.30;95.30;;;;;;5026933;28;20042;-74
2022/07/13 08:07:03;;;;;;;10.60;2.85;;;26.30;94.90;;;;;;5029746;28;20049;-74
2022/07/13 08:09:29;;;;;;;4.63;1.98;;;26.20;94.80;;;;;;5028713;28;20022;-74
2022/07/13 08:11:54;;;;;;;8.43;2.85;;;26.30;95.10;;;;;;5019463;28;20021;-75
2022/07/13 08:14:21;;;;;;;3.40;2.58;;;26.50;94.90;;;;;;5029459;28;20470;-75
2022/07/13 08:16:46;;;;;;;5.45;2.50;;;26.50;95.00;;;;;;5031065;28;20029;-74
2022/07/13 08:19:13;;;;;;;6.13;2.35;;;26.40;94.80;;;;;;5029812;28;20074;-75
2022/07/13 08:21:39;;;;;;;4.43;2.42;;;26.40;94.90;;;;;;5029915;28;20021;-74
2022/07/13 08:24:04;;;;;;;7.03;2.50;;;26.30;94.80;;;;;;5027955;28;20044;-75
2022/07/13 08:26:30;;;;;;;3.17;1.77;;;26.30;95.20;;;;;;5031235;28;20018;-75
2022/07/13 08:28:57;;;;;;;5.90;2.75;;;26.30;95.20;;;;;;5029821;28;20056;-74
2022/07/13 08:31:24;;;;;;;5.68;3.17;;;26.40;95.10;;;;;;5028206;28;20554;-75
2022/07/13 08:39:20;;;;;;;5.70;2.45;;;26.70;94.90;;;;;;5021537;28;20529;-75
2022/07/13 08:41:46;;;;;;;7.00;2.53;;;26.80;94.90;;;;;;5026989;28;20022;-74
2022/07/13 08:44:12;;;;;;;3.45;2.17;;;26.80;94.50;;;;;;5029908;28;20116;-74
2022/07/13 08:46:39;;;;;;;4.28;2.25;;;26.90;94.30;;;;;;5029806;28;20198;-74
2022/07/13 08:49:05;;;;;;;4.05;2.17;;;26.90;93.90;;;;;;5028766;28;20033;-72
2022/07/13 08:51:34;;;;;;;8.20;2.55;;;26.90;93.80;;;;;;5030881;28;20029;-73
2022/07/13 08:54:02;;;;;;;6.68;2.10;;;27.10;94.10;;;;;;5030311;28;20100;-75
2022/07/13 08:56:28;;;;;;;5.28;2.03;;;27.20;94.00;;;;;;5031357;28;20037;-74
2022/07/13 08:58:54;;;;;;;3.65;2.00;;;27.40;93.60;;;;;;5030791;28;20029;-73
2022/07/13 09:01:20;;;;;;;5.65;2.50;;;27.50;93.30;;;;;;5026887;28;20111;-73
2022/07/13 09:03:46;;;;;;;4.38;2.20;;;27.60;93.20;;;;;;5030893;28;20060;-73
2022/07/13 09:06:40;;;;;;;4.45;2.55;;;27.60;92.90;;;;;;5030159;28;20032;-73
2022/07/13 09:09:31;;;;;;;5.00;2.03;;;27.70;92.60;;;;;;5028532;28;20143;-73
2022/07/13 09:12:18;;;;;;;4.13;2.27;;;27.70;92.80;;;;;;5011793;28;20022;-74
2022/07/13 09:14:52;;;;;;;4.93;2.55;;;27.80;92.70;;;;;;5015529;28;20096;-74
2022/07/13 09:17:30;;;;;;;2.58;1.60;;;27.70;92.40;;;;;;5027892;28;20440;-74
2022/07/13 09:19:58;;;;;;;3.90;2.40;;;27.70;92.60;;;;;;5031201;28;20033;-72
2022/07/13 09:22:23;;;;;;;6.30;2.50;;;27.70;92.50;;;;;;5029720;28;20071;-73
2022/07/13 09:24:53;;;;;;;5.10;2.88;;;27.70;92.50;;;;;;5027870;28;20385;-74
2022/07/13 09:27:20;;;;;;;5.82;2.25;;;27.70;92.40;;;;;;5027319;28;20041;-72
2022/07/13 09:29:45;;;;;;;5.03;2.58;;;27.70;92.40;;;;;;5024065;28;20389;-75
2022/07/13 09:32:11;;;;;;;4.25;2.90;;;27.50;92.30;;;;;;5032418;28;20034;-75
2022/07/13 09:34:52;;;;;;;4.88;2.28;;;27.30;92.50;;;;;;5033244;28;20037;-75
2022/07/13 09:37:27;;;;;;;4.53;2.15;;;27.20;92.80;;;;;;5033941;28;20085;-74
2022/07/13 09:40:07;;;;;;;6.45;3.13;;;27.10;92.90;;;;;;5032859;28;20121;-75
2022/07/13 09:42:37;;;;;;;4.28;2.63;;;27.00;92.90;;;;;;5029108;28;20037;-73
2022/07/13 09:47:56;;;;;;;6.30;3.00;;;27.00;93.50;;;;;;5030967;28;20114;-74
2022/07/13 09:50:41;;;;;;;6.00;3.25;;;27.00;93.20;;;;;;5031856;28;20056;-74
2022/07/13 09:53:29;;;;;;;3.25;2.20;;;27.10;92.90;;;;;;5018514;28;20033;-74
2022/07/13 09:55:57;;;;;;;4.18;2.55;;;27.30;92.90;;;;;;5028865;28;20021;-74
2022/07/13 09:58:29;;;;;;;7.53;2.35;;;27.30;92.70;;;;;;5030048;28;20045;-74
2022/07/13 10:00:57;;;;;;;5.65;2.55;;;27.50;92.90;;;;;;5031906;28;20025;-74
2022/07/13 10:03:29;;;;;;;4.57;1.90;;;27.60;92.60;;;;;;5030081;28;20029;-74
2022/07/13 10:05:55;;;;;;;5.55;2.35;;;27.70;92.60;;;;;;5025746;28;20041;-74
2022/07/13 10:08:22;;;;;;;8.18;1.73;;;27.70;92.20;;;;;;5025490;28;20171;-74
2022/07/13 10:10:49;;;;;;;4.45;2.00;;;27.90;92.20;;;;;;5032211;28;20409;-74
2022/07/13 10:13:15;;;;;;;4.68;2.08;;;28.00;91.90;;;;;;5033094;28;20032;-73
2022/07/13 10:15:41;;;;;;;3.70;2.03;;;28.20;91.10;;;;;;5033137;28;20037;-74
2022/07/13 10:18:10;;;;;;;4.05;2.00;;;28.20;90.80;;;;;;5031179;28;20045;-74
2022/07/13 10:20:42;;;;;;;3.03;1.58;;;28.10;90.60;;;;;;5027766;28;20374;-73
2022/07/13 10:23:08;;;;;;;3.08;1.33;;;28.00;90.60;;;;;;5031027;28;20092;-73
2022/07/13 10:25:45;;;;;;;4.97;1.60;;;28.00;90.30;;;;;;5032832;28;20381;-74
2022/07/13 10:28:12;;;;;;;4.20;1.77;;;28.00;90.00;;;;;;5031995;28;20083;-73
2022/07/13 10:30:38;;;;;;;3.28;1.67;;;28.00;90.10;;;;;;5023464;28;20478;-74
2022/07/13 10:33:21;;;;;;;3.33;1.27;;;28.00;90.30;;;;;;5032750;28;20536;-73
2022/07/13 10:35:51;;;;;;;2.28;1.52;;;28.10;90.00;;;;;;5030756;28;20071;-74
2022/07/13 10:38:22;;;;;;;3.17;1.23;;;28.10;89.20;;;;;;5031994;28;20497;-74
2022/07/13 10:40:48;;;;;;;1.77;1.00;;;28.10;87.70;;;;;;5031883;28;20064;-74
2022/07/13 10:43:15;;;;;;;3.03;1.05;;;28.10;87.80;;;;;;5029605;28;20073;-73
2022/07/13 10:45:48;;;;;;;3.38;1.35;;;28.00;88.70;;;;;;5033191;28;20041;-74
2022/07/13 10:48:25;;;;;;;3.55;1.30;;;28.00;88.20;;;;;;5030597;28;20087;-74
2022/07/13 10:50:57;;;;;;;3.05;1.13;;;28.00;88.40;;;;;;5031840;28;20022;-74
2022/07/13 10:53:57;;;;;;;;;;;28.00;88.00;;;;;;5024981;28;20035;-73
2022/07/13 10:56:24;;;;;;;3.42;1.30;;;27.90;88.30;;;;;;5031528;28;19913;-73
2022/07/13 10:58:50;;;;;;;3.28;1.35;;;27.80;88.10;;;;;;5032872;28;20444;-73
2022/07/13 11:01:36;;;;;;;4.70;1.08;;;27.90;87.30;;;;;;5030519;28;20100;-73
2022/07/13 11:04:03;;;;;;;4.28;1.48;;;27.90;87.20;;;;;;5032183;28;20045;-74
2022/07/13 11:06:29;;;;;;;5.47;1.40;;;27.90;86.90;;;;;;5029519;28;20053;-73
2022/07/13 11:09:11;;;;;;;4.47;1.00;;;28.00;86.90;;;;;;5031623;28;20425;-73
2022/07/13 11:11:47;;;;;;;4.30;1.20;;;28.20;86.50;;;;;;5019732;28;20040;-73
2022/07/13 11:14:38;;;;;;;3.78;1.30;;;28.40;86.40;;;;;;5029694;28;20024;-74
2022/07/13 11:17:14;;;;;;;3.35;1.48;;;28.80;85.20;;;;;;5030047;28;20036;-74
2022/07/13 11:20:09;;;;;;;2.75;1.60;;;29.00;84.90;;;;;;5028205;28;20417;-74
2022/07/13 11:25:35;;;;;;;3.33;1.40;;;29.30;83.80;;;;;;5030346;28;20068;-74
2022/07/13 11:28:12;;;;;;;;;;;29.60;82.60;;;;;;5024050;28;20060;-74
2022/07/13 11:30:44;;;;;;;4.10;1.58;;;29.60;83.00;;;;;;5024975;28;19960;-74
2022/07/13 11:33:13;;;;;;;3.58;1.50;;;29.90;81.50;;;;;;5031819;28;20029;-74
2022/07/13 11:35:44;;;;;;;4.30;1.50;;;30.10;80.30;;;;;;5023334;28;20060;-74
2022/07/13 11:38:10;;;;;;;3.28;1.02;;;30.20;79.30;;;;;;5030427;28;20037;-74
2022/07/13 11:40:36;;;;;;;2.97;1.73;;;30.20;78.00;;;;;;5025589;28;20040;-74
2022/07/13 11:43:02;;;;;;;4.75;1.13;;;30.10;77.60;;;;;;5030900;28;20033;-74
2022/07/13 11:45:32;;;;;;;2.95;1.27;;;30.00;78.30;;;;;;5030366;28;20059;-74
2022/07/13 11:48:00;;;;;;;2.13;1.10;;;30.00;78.40;;;;;;5032279;28;20427;-74
2022/07/13 11:50:47;;;;;;;2.20;1.33;;;30.00;79.20;;;;;;5025808;28;20121;-74
2022/07/13 11:53:30;;;;;;;2.33;1.13;;;30.00;77.60;;;;;;5020708;28;20494;-73
2022/07/13 11:55:58;;;;;;;2.15;1.10;;;29.90;77.60;;;;;;5027414;28;20100;-74
2022/07/13 11:58:28;;;;;;;2.60;1.38;;;29.90;78.10;;;;;;5027667;28;20042;-73
2022/07/13 12:00:56;;;;;;;2.75;1.25;;;29.90;77.80;;;;;;5023343;28;20025;-74
2022/07/13 12:03:30;;;;;;;2.72;1.30;;;30.10;76.90;;;;;;5030723;28;20028;-74
2022/07/13 12:06:07;;;;;;;3.92;1.17;;;30.30;77.00;;;;;;5028664;28;20076;-73
2022/07/13 12:08:40;;;;;;;3.58;1.63;;;30.30;76.00;;;;;;5028760;28;20025;-74
2022/07/13 12:11:18;;;;;;;3.33;1.10;;;30.20;75.10;;;;;;5023536;28;20485;-74
2022/07/13 12:13:45;;;;;;;2.97;1.23;;;30.30;75.20;;;;;;5027564;28;20053;-74
2022/07/13 12:16:15;;;;;;;2.80;1.27;;;30.30;75.80;;;;;;5030060;28;20025;-74
2022/07/13 12:19:04;;;;;;;2.95;1.40;;;30.20;75.10;;;;;;5029400;28;20565;-74
2022/07/13 12:21:31;;;;;;;3.28;1.20;;;30.30;75.40;;;;;;5026866;28;20112;-74
2022/07/13 12:23:58;;;;;;;3.60;1.58;;;30.30;75.00;;;;;;5028718;28;20030;-74
2022/07/13 12:26:24;;;;;;;3.85;1.50;;;30.40;75.10;;;;;;5011809;28;20118;-74
2022/07/13 12:28:49;;;;;;;3.45;1.00;;;30.40;74.60;;;;;;5018876;28;20065;-75
2022/07/13 12:31:19;;;;;;;5.90;1.42;;;30.40;74.30;;;;;;5024625;28;20033;-74
2022/07/13 12:33:46;;;;;;;2.33;1.00;;;30.30;74.00;;;;;;5030954;28;20028;-74
2022/07/13 12:36:13;;;;;;;2.78;1.40;;;30.30;74.20;;;;;;5022974;28;20042;-74
2022/07/13 12:38:56;;;;;;;4.25;1.63;;;30.30;74.20;;;;;;5023123;28;20037;-74
2022/07/13 12:41:27;;;;;;;4.45;1.00;;;30.40;74.20;;;;;;5028547;28;20057;-74
2022/07/13 12:43:58;;;;;;;5.65;1.20;;;30.30;73.90;;;;;;5030770;28;20036;-75
2022/07/13 12:46:24;;;;;;;1.38;0.52;;;30.10;72.80;;;;;;5029999;28;20087;-73
2022/07/13 12:48:59;;;;;;;3.08;0.70;;;29.90;71.50;;;;;;5025377;28;20474;-73
2022/07/13 12:51:25;;;;;;;1.42;0.60;;;29.70;70.40;;;;;;5021665;28;20044;-74
2022/07/13 12:53:52;;;;;;;4.28;1.00;;;29.70;70.20;;;;;;5030057;28;20448;-74
2022/07/13 12:56:26;;;;;;;1.48;0.60;;;29.80;69.50;;;;;;5028573;28;20092;-74